Time;durP1;ratioP1;P1;durP2;ratioP2;P2;SDS_P1;SDS_P2;PMS_P1;PMS_P2;Temp;Humidity;BMP_temperature;BMP_pressure;BME280_temperature;BME280_humidity;BME280_pressure;Samples;Min_cycle;Max_cycle;Signal;HPM_P1;HPM_P2
2022/07/24 00:01:00;;;;;;;5.47;3.34;;;;;;;19.61;65.79;100532.50;470841;112;922960;-76
2022/07/24 00:02:03;;;;;;;7.50;4.24;;;;;;;19.60;65.79;100530.00;470832;112;922855;-76
2022/07/24 00:03:06;;;;;;;7.39;4.34;;;;;;;19.62;65.79;100527.80;470813;112;922538;-76
2022/07/24 00:04:10;;;;;;;6.74;4.52;;;;;;;19.62;65.77;100525.03;470724;112;922946;-78
2022/07/24 00:05:14;;;;;;;6.67;4.01;;;;;;;19.61;65.72;100532.50;470862;112;923193;-78
2022/07/24 00:06:18;;;;;;;7.04;4.38;;;;;;;19.60;65.77;100525.30;470566;112;922882;-76
2022/07/24 00:07:22;;;;;;;5.84;3.63;;;;;;;19.61;65.71;100523.37;463444;112;922707;-76
2022/07/24 00:08:25;;;;;;;7.08;4.15;;;;;;;19.60;65.76;100521.70;461390;114;922861;-76
2022/07/24 00:09:28;;;;;;;10.18;4.58;;;;;;;19.59;65.86;100529.17;461420;113;923483;-78
2022/07/24 00:10:32;;;;;;;8.33;4.29;;;;;;;19.58;65.88;100522.80;461395;114;923050;-76
2022/07/24 00:11:36;;;;;;;5.58;4.10;;;;;;;19.59;65.97;100531.94;461298;115;930447;-76
2022/07/24 00:12:39;;;;;;;5.53;3.77;;;;;;;19.61;66.01;100531.66;461533;115;922567;-76
2022/07/24 00:13:42;;;;;;;7.87;4.03;;;;;;;19.61;66.03;100524.20;461447;115;922580;-76
2022/07/24 00:14:45;;;;;;;6.41;4.31;;;;;;;19.60;65.99;100522.53;461425;113;930495;-77
2022/07/24 00:15:49;;;;;;;7.64;4.73;;;;;;;19.61;65.97;100526.13;452252;117;922624;-77
2022/07/24 00:16:52;;;;;;;6.51;3.83;;;;;;;19.61;65.99;100526.97;461511;115;922494;-77
2022/07/24 00:17:54;;;;;;;6.36;3.85;;;;;;;19.61;66.14;100515.07;452309;116;922716;-77
2022/07/24 00:18:58;;;;;;;6.01;3.99;;;;;;;19.62;66.14;100522.27;461483;115;922890;-77
2022/07/24 00:20:01;;;;;;;6.33;3.71;;;;;;;19.62;66.20;100517.57;452258;117;922508;-77
2022/07/24 00:21:04;;;;;;;9.05;3.97;;;;;;;19.62;66.26;100523.10;461555;115;922511;-78
2022/07/24 00:22:10;;;;;;;6.03;4.24;;;;;;;19.62;66.27;100520.34;461318;115;922466;-77
2022/07/24 00:23:13;;;;;;;6.12;3.92;;;;;;;19.63;66.35;100521.17;461473;114;922971;-77
2022/07/24 00:24:16;;;;;;;4.74;3.54;;;;;;;19.63;66.42;100519.20;461498;113;922762;-77
2022/07/24 00:25:19;;;;;;;6.38;3.80;;;;;;;19.63;66.40;100519.20;461467;115;922933;-77
2022/07/24 00:26:22;;;;;;;6.62;3.82;;;;;;;19.64;66.52;100525.56;452278;117;922732;-77
2022/07/24 00:27:25;;;;;;;6.35;3.99;;;;;;;19.64;66.51;100520.87;461462;115;922479;-77
2022/07/24 00:28:28;;;;;;;10.01;3.43;;;;;;;19.64;66.59;100526.41;461479;115;922494;-78
2022/07/24 00:29:31;;;;;;;7.37;3.39;;;;;;;19.65;66.51;100521.70;461467;113;922419;-77
2022/07/24 00:30:35;;;;;;;6.16;3.94;;;;;;;19.66;66.55;100520.60;459607;115;923370;-77
2022/07/24 00:31:38;;;;;;;6.53;3.76;;;;;;;19.65;66.50;100524.47;461468;115;923107;-77
2022/07/24 00:32:41;;;;;;;5.42;4.21;;;;;;;19.63;66.50;100533.03;461439;115;930896;-77
2022/07/24 00:33:48;;;;;;;6.67;3.78;;;;;;;19.64;66.53;100539.40;459607;113;922868;-77
2022/07/24 00:34:51;;;;;;;9.28;3.60;;;;;;;19.64;66.50;100533.86;453389;116;922625;-77
2022/07/24 00:35:54;;;;;;;4.39;3.01;;;;;;;19.62;66.42;100539.70;453512;117;923073;-77
2022/07/24 00:36:57;;;;;;;5.62;3.02;;;;;;;19.59;66.33;100534.70;453534;116;923321;-77
2022/07/24 00:38:00;;;;;;;6.21;3.80;;;;;;;19.56;66.31;100538.03;453467;117;923230;-77
2022/07/24 00:39:03;;;;;;;5.60;3.61;;;;;;;19.54;66.38;100537.46;453515;115;923134;-77
2022/07/24 00:40:08;;;;;;;5.56;3.54;;;;;;;19.51;66.41;100530.56;453357;116;923035;-78
2022/07/24 00:41:11;;;;;;;4.61;3.37;;;;;;;19.49;66.40;100541.05;453484;116;922592;-77
2022/07/24 00:42:14;;;;;;;3.76;2.91;;;;;;;19.47;66.53;100540.48;453556;116;923021;-77
2022/07/24 00:43:17;;;;;;;4.88;2.94;;;;;;;19.46;66.62;100529.72;453523;116;922887;-78
2022/07/24 00:44:21;;;;;;;5.84;3.29;;;;;;;19.45;66.69;100526.13;453531;115;922590;-77
2022/07/24 00:45:24;;;;;;;3.81;2.41;;;;;;;19.43;66.85;100536.59;453569;117;923316;-77
2022/07/24 00:46:31;;;;;;;2.75;1.66;;;;;;;19.43;66.84;100536.59;453380;116;923430;-77
2022/07/24 00:47:34;;;;;;;4.51;2.12;;;;;;;19.41;66.88;100541.55;453492;116;922498;-78
2022/07/24 00:48:39;;;;;;;4.26;2.84;;;;;;;19.41;66.89;100544.31;453358;117;922613;-77
2022/07/24 00:49:42;;;;;;;5.09;3.08;;;;;;;19.41;66.99;100541.55;453446;115;922483;-77
2022/07/24 00:50:46;;;;;;;2.09;1.69;;;;;;;19.41;67.03;100543.48;444627;119;924726;-77
2022/07/24 00:51:52;;;;;;;7.04;2.46;;;;;;;19.42;66.96;100554.28;453446;117;922509;-77
2022/07/24 00:52:56;;;;;;;3.44;1.86;;;;;;;19.41;67.00;100551.78;453351;117;923136;-77
2022/07/24 00:53:59;;;;;;;1.92;1.19;;;;;;;19.40;67.03;100547.38;453517;115;922602;-77
2022/07/24 00:55:03;;;;;;;1.33;1.20;;;;;;;19.40;66.92;100548.21;453412;117;930282;-77
2022/07/24 00:56:07;;;;;;;1.78;1.11;;;;;;;19.37;66.89;100551.51;453394;116;922469;-77
2022/07/24 00:57:10;;;;;;;1.44;1.10;;;;;;;19.35;66.98;100544.61;453603;116;922764;-77
2022/07/24 00:58:14;;;;;;;1.25;0.86;;;;;;;19.34;67.02;100552.06;453451;117;922559;-77
2022/07/24 00:59:18;;;;;;;1.82;1.00;;;;;;;19.31;67.01;100544.30;453482;115;922709;-77
2022/07/24 01:00:23;;;;;;;2.63;1.11;;;;;;;19.31;67.06;100540.70;453325;116;922505;-77
2022/07/24 01:01:27;;;;;;;1.31;0.98;;;;;;;19.30;67.11;100542.64;453515;116;922519;-77
2022/07/24 01:02:30;;;;;;;2.52;1.41;;;;;;;19.29;67.18;100541.00;453467;117;922775;-77
2022/07/24 01:03:33;;;;;;;1.51;1.00;;;;;;;19.29;67.13;100537.41;453513;117;930275;-77
2022/07/24 01:04:37;;;;;;;1.60;1.17;;;;;;;19.28;67.15;100528.28;453521;115;922516;-77
2022/07/24 01:05:40;;;;;;;2.77;1.21;;;;;;;19.28;67.17;100535.73;453400;117;922573;-77
2022/07/24 01:06:44;;;;;;;3.58;1.35;;;;;;;19.26;67.21;100533.23;445836;117;922994;-77
2022/07/24 01:07:47;;;;;;;2.37;1.44;;;;;;;19.24;67.20;100527.14;461454;115;922453;-77
2022/07/24 01:08:50;;;;;;;2.33;1.70;;;;;;;19.23;67.31;100531.03;461489;113;922770;-78
2022/07/24 01:09:54;;;;;;;2.98;1.83;;;;;;;19.22;67.35;100529.36;461463;115;922937;-77
2022/07/24 01:10:58;;;;;;;4.65;1.75;;;;;;;19.21;67.35;100532.39;461481;114;922585;-77
2022/07/24 01:12:02;;;;;;;2.95;1.71;;;;;;;19.20;67.40;100534.33;461533;115;923115;-77
2022/07/24 01:13:06;;;;;;;2.67;1.85;;;;;;;19.20;67.49;100533.49;461396;115;922664;-77
2022/07/24 01:14:09;;;;;;;3.87;1.72;;;;;;;19.20;67.63;100531.56;461446;113;922519;-78
2022/07/24 01:15:13;;;;;;;2.90;1.65;;;;;;;19.21;67.68;100535.16;461494;115;922552;-77
2022/07/24 01:16:17;;;;;;;3.88;2.12;;;;;;;19.21;67.71;100533.23;452169;116;930332;-78
2022/07/24 01:17:20;;;;;;;4.07;2.39;;;;;;;19.21;67.71;100533.23;452150;116;923421;-78
2022/07/24 01:18:23;;;;;;;3.70;2.19;;;;;;;19.22;67.74;100532.13;461550;115;923141;-78
2022/07/24 01:19:27;;;;;;;4.98;2.37;;;;;;;19.23;67.84;100535.73;461445;113;922616;-77
2022/07/24 01:20:37;;;;;;;5.23;2.51;;;;;;;19.24;67.88;100535.44;461207;115;922863;-78
2022/07/24 01:21:47;;;;;;;7.86;2.98;;;;;;;19.24;67.86;100529.91;461236;115;922515;-78
2022/07/24 01:22:50;;;;;;;6.34;2.63;;;;;;;19.25;67.87;100533.50;461212;115;922548;-78
2022/07/24 01:23:53;;;;;;;5.91;2.73;;;;;;;19.26;67.98;100537.94;455454;114;923479;-78
2022/07/24 01:24:56;;;;;;;3.98;2.88;;;;;;;19.26;67.87;100538.77;451928;117;922452;-78
2022/07/24 01:25:59;;;;;;;6.30;3.06;;;;;;;19.27;67.87;100543.20;451935;117;922636;-78
2022/07/24 01:27:03;;;;;;;5.09;2.21;;;;;;;19.28;67.84;100542.09;451810;117;923032;-78
2022/07/24 01:28:06;;;;;;;7.10;3.02;;;;;;;19.27;67.83;100536.84;451852;117;930458;-78
2022/07/24 01:29:09;;;;;;;3.17;2.68;;;;;;;19.25;67.73;100539.86;451962;115;922626;-78
2022/07/24 01:30:12;;;;;;;4.82;2.37;;;;;;;19.24;67.62;100540.96;450689;117;922567;-78
2022/07/24 01:31:15;;;;;;;5.31;2.89;;;;;;;19.22;67.58;100531.30;451925;117;922536;-78
2022/07/24 01:32:19;;;;;;;4.83;2.37;;;;;;;19.18;67.60;100534.59;451956;117;922873;-78
2022/07/24 01:33:22;;;;;;;4.03;2.58;;;;;;;19.16;67.62;100539.58;451874;117;923229;-78
2022/07/24 01:34:25;;;;;;;3.80;2.48;;;;;;;19.13;67.67;100540.11;445342;115;922811;-78
2022/07/24 01:35:28;;;;;;;3.61;2.19;;;;;;;19.11;67.75;100536.80;444361;119;922933;-78
2022/07/24 01:36:32;;;;;;;5.07;3.11;;;;;;;19.10;67.81;100537.90;444260;119;922558;-78
2022/07/24 01:37:35;;;;;;;4.27;2.88;;;;;;;19.10;67.86;100531.54;444194;119;930698;-78
2022/07/24 01:38:38;;;;;;;2.98;2.39;;;;;;;19.08;67.82;100533.73;444239;119;930434;-78
2022/07/24 01:39:41;;;;;;;4.05;2.20;;;;;;;19.05;67.85;100526.83;444284;117;922896;-78
2022/07/24 01:40:45;;;;;;;4.32;2.21;;;;;;;19.04;67.92;100525.17;444321;119;922620;-78
2022/07/24 01:41:49;;;;;;;5.46;2.70;;;;;;;19.04;67.89;100527.09;444199;119;922851;-78
2022/07/24 01:42:52;;;;;;;5.67;2.09;;;;;;;19.01;67.93;100525.73;444314;119;923027;-78
2022/07/24 01:43:55;;;;;;;4.03;2.29;;;;;;;19.01;68.08;100525.73;444369;119;923096;-78
2022/07/24 01:44:58;;;;;;;4.81;2.56;;;;;;;19.00;68.03;100525.98;444301;119;922750;-78
2022/07/24 01:46:01;;;;;;;3.25;2.02;;;;;;;18.99;68.03;100529.84;444388;119;922495;-78
2022/07/24 01:47:04;;;;;;;4.41;2.48;;;;;;;18.99;68.02;100532.61;444398;119;922543;-76
2022/07/24 01:48:08;;;;;;;2.84;2.27;;;;;;;18.96;68.08;100534.00;444326;119;922496;-78
2022/07/24 01:49:11;;;;;;;3.04;2.13;;;;;;;18.95;68.08;100532.34;444368;117;922846;-78
2022/07/24 01:50:15;;;;;;;2.45;2.17;;;;;;;18.94;68.12;100538.13;444270;119;922610;-78
2022/07/24 01:51:18;;;;;;;3.42;2.21;;;;;;;18.92;68.06;100538.38;444402;119;922640;-78
2022/07/24 01:52:24;;;;;;;3.36;2.05;;;;;;;18.91;68.07;100539.48;436366;121;923197;-79
2022/07/24 01:53:26;;;;;;;3.46;2.44;;;;;;;18.90;68.10;100542.53;438598;118;922585;-79
2022/07/24 01:54:29;;;;;;;2.87;1.91;;;;;;;18.89;68.16;100529.81;444340;117;922452;-75
2022/07/24 01:55:32;;;;;;;2.04;1.75;;;;;;;18.88;68.21;100536.44;444358;119;922905;-78
2022/07/24 01:56:36;;;;;;;3.14;2.17;;;;;;;18.87;68.29;100534.77;444324;119;922475;-78
2022/07/24 01:57:41;;;;;;;3.56;1.89;;;;;;;18.87;68.31;100535.61;444156;119;923347;-78
2022/07/24 01:58:44;;;;;;;3.16;1.93;;;;;;;18.89;68.46;100527.05;444259;119;922656;-79
2022/07/24 01:59:47;;;;;;;2.35;1.66;;;;;;;18.90;68.55;100531.48;444305;119;922547;-78
2022/07/24 02:00:52;;;;;;;3.44;1.88;;;;;;;18.90;68.55;100526.80;444200;119;923008;-77
2022/07/24 02:01:55;;;;;;;2.56;1.50;;;;;;;18.91;68.52;100525.66;444343;119;922493;-77
2022/07/24 02:02:58;;;;;;;2.00;1.33;;;;;;;18.90;68.53;100521.27;444353;119;922899;-77
2022/07/24 02:04:01;;;;;;;2.26;1.09;;;;;;;18.91;68.54;100522.10;444318;117;922598;-77
2022/07/24 02:05:05;;;;;;;1.27;1.12;;;;;;;18.92;68.49;100529.27;444363;119;923124;-77
2022/07/24 02:06:09;;;;;;;1.84;1.17;;;;;;;18.92;68.41;100523.73;444305;119;922963;-77
2022/07/24 02:07:12;;;;;;;1.50;1.25;;;;;;;18.91;68.38;100533.95;448814;117;922862;-77
2022/07/24 02:08:15;;;;;;;1.72;1.14;;;;;;;18.92;68.37;100527.33;451943;117;922458;-77
2022/07/24 02:09:18;;;;;;;2.21;1.55;;;;;;;18.91;68.44;100525.66;451909;115;923191;-77
2022/07/24 02:10:23;;;;;;;2.62;1.14;;;;;;;18.93;68.48;100540.05;451824;117;923010;-77
2022/07/24 02:11:26;;;;;;;1.13;1.02;;;;;;;18.93;68.48;100536.45;451856;117;922554;-77
2022/07/24 02:12:29;;;;;;;1.71;1.23;;;;;;;18.93;68.39;100536.45;452012;117;922565;-77
2022/07/24 02:13:32;;;;;;;1.51;1.09;;;;;;;18.93;68.35;100542.81;451964;117;922646;-77
2022/07/24 02:14:35;;;;;;;1.12;1.02;;;;;;;18.93;68.31;100544.75;451884;115;922968;-77
2022/07/24 02:15:38;;;;;;;1.04;0.88;;;;;;;18.94;68.28;100549.17;451885;117;930407;-77
2022/07/24 02:16:41;;;;;;;3.48;1.00;;;;;;;18.93;68.23;100545.58;451985;117;923050;-77
2022/07/24 02:17:49;;;;;;;1.87;0.99;;;;;;;18.93;68.28;100547.51;451949;117;922508;-77
2022/07/24 02:18:52;;;;;;;1.44;1.00;;;;;;;18.93;68.40;100559.39;451823;117;922804;-77
2022/07/24 02:19:55;;;;;;;1.37;1.14;;;;;;;18.95;68.47;100550.84;452035;117;923070;-77
2022/07/24 02:20:58;;;;;;;1.44;1.16;;;;;;;18.96;68.49;100550.58;452004;117;922743;-77
2022/07/24 02:22:01;;;;;;;3.98;2.15;;;;;;;18.99;68.56;100551.95;451974;117;923034;-77
2022/07/24 02:23:04;;;;;;;3.71;1.67;;;;;;;19.01;68.50;100544.23;452031;117;923381;-77
2022/07/24 02:24:07;;;;;;;4.53;2.21;;;;;;;19.02;68.45;100543.94;452131;115;922537;-77
2022/07/24 02:25:11;;;;;;;4.76;3.37;;;;;;;19.04;68.43;100552.80;461517;115;922558;-77
2022/07/24 02:26:18;;;;;;;6.74;1.88;;;;;;;19.05;68.15;100550.88;461198;115;923660;-77
2022/07/24 02:27:22;;;;;;;5.91;2.64;;;;;;;19.04;68.18;100558.33;461125;114;922576;-77
2022/07/24 02:28:25;;;;;;;3.30;2.39;;;;;;;19.05;68.17;100553.64;461536;115;923044;-77
2022/07/24 02:29:28;;;;;;;4.88;2.27;;;;;;;19.05;68.20;100554.47;460930;113;923099;-77
2022/07/24 02:30:33;;;;;;;3.99;2.83;;;;;;;19.07;68.08;100565.27;457789;115;923547;-77
2022/07/24 02:31:36;;;;;;;3.99;2.52;;;;;;;19.06;68.11;100563.59;461494;115;923156;-77
2022/07/24 02:32:40;;;;;;;5.24;2.34;;;;;;;19.07;68.09;100570.79;461492;114;922817;-77
2022/07/24 02:33:43;;;;;;;34.81;3.20;;;;;;;19.09;68.11;100574.92;462950;112;922963;-77
2022/07/24 02:34:46;;;;;;;5.14;2.17;;;;;;;19.10;68.08;100564.70;470774;112;922756;-77
2022/07/24 02:35:49;;;;;;;3.57;1.97;;;;;;;19.10;68.06;100571.06;470767;112;922815;-77
2022/07/24 02:36:52;;;;;;;4.50;2.50;;;;;;;19.11;68.14;100569.97;470791;112;922519;-77
2022/07/24 02:37:55;;;;;;;5.08;2.67;;;;;;;19.13;68.10;100575.23;470788;112;923057;-77
2022/07/24 02:38:58;;;;;;;5.29;3.03;;;;;;;19.13;68.01;100575.23;470742;112;923589;-77
2022/07/24 02:40:01;;;;;;;3.32;2.45;;;;;;;19.14;68.00;100574.11;470778;112;923326;-77
2022/07/24 02:41:04;;;;;;;3.92;2.51;;;;;;;19.16;67.94;100566.39;470776;112;923013;-77
2022/07/24 02:42:08;;;;;;;3.47;2.11;;;;;;;19.18;67.83;100571.66;470789;112;923066;-77
2022/07/24 02:43:11;;;;;;;3.72;2.19;;;;;;;19.18;67.72;100566.95;470685;112;923028;-77
2022/07/24 02:44:16;;;;;;;3.77;2.71;;;;;;;19.21;67.68;100566.40;470669;112;922446;-77
2022/07/24 02:45:19;;;;;;;5.43;2.83;;;;;;;19.23;67.55;100568.90;470581;112;922898;-77
2022/07/24 02:46:23;;;;;;;2.91;2.01;;;;;;;19.23;67.65;100569.73;470701;112;922933;-77
2022/07/24 02:47:26;;;;;;;3.41;2.34;;;;;;;19.25;67.71;100566.67;470793;112;922827;-77
2022/07/24 02:48:29;;;;;;;3.71;1.94;;;;;;;19.24;67.52;100562.27;470749;112;922965;-77
2022/07/24 02:49:33;;;;;;;3.10;2.01;;;;;;;19.25;67.52;100570.27;470803;112;923099;-77
2022/07/24 02:50:38;;;;;;;4.69;1.98;;;;;;;19.25;67.54;100574.97;470645;112;923253;-77
2022/07/24 02:51:41;;;;;;;3.03;2.14;;;;;;;19.25;67.56;100575.80;470631;112;922643;-77
2022/07/24 02:52:44;;;;;;;2.47;1.71;;;;;;;19.27;67.62;100570.84;470807;112;922510;-77
2022/07/24 02:53:47;;;;;;;2.21;1.64;;;;;;;19.28;67.60;100561.45;470754;112;922575;-77
2022/07/24 02:54:50;;;;;;;2.74;1.23;;;;;;;19.29;67.57;100563.12;470870;112;922841;-77
2022/07/24 02:55:53;;;;;;;1.98;1.22;;;;;;;19.32;67.51;100570.85;470819;112;922891;-77
2022/07/24 02:56:56;;;;;;;3.62;1.26;;;;;;;19.34;67.35;100570.59;470709;112;923125;-77
2022/07/24 02:57:59;;;;;;;2.61;1.53;;;;;;;19.37;67.24;100564.50;470768;112;923356;-77
2022/07/24 02:59:02;;;;;;;3.39;1.19;;;;;;;19.39;67.17;100567.83;470807;112;923044;-77
2022/07/24 03:00:09;;;;;;;2.60;1.43;;;;;;;19.41;67.12;100560.08;470684;112;922628;-77
2022/07/24 03:01:13;;;;;;;2.54;1.02;;;;;;;19.43;67.13;100553.18;470614;112;922956;-76
2022/07/24 03:02:16;;;;;;;2.29;1.31;;;;;;;19.46;67.02;100554.61;470783;112;923048;-77
2022/07/24 03:03:19;;;;;;;1.78;1.27;;;;;;;19.49;67.00;100554.05;470831;112;922622;-77
2022/07/24 03:04:23;;;;;;;1.96;1.06;;;;;;;19.49;66.89;100552.12;470797;112;922546;-77
2022/07/24 03:05:26;;;;;;;1.01;0.85;;;;;;;19.50;66.78;100553.78;470710;112;922536;-76
2022/07/24 03:06:29;;;;;;;1.22;0.96;;;;;;;19.52;66.79;100546.02;470639;112;930162;-76
2022/07/24 03:07:33;;;;;;;1.60;0.88;;;;;;;19.54;66.78;100543.83;461877;112;923328;-76
2022/07/24 03:08:36;;;;;;;2.16;0.83;;;;;;;19.56;66.64;100540.80;461444;114;922540;-76
2022/07/24 03:09:39;;;;;;;1.71;0.86;;;;;;;19.57;66.38;100540.50;461494;113;922594;-77
2022/07/24 03:10:42;;;;;;;1.65;0.81;;;;;;;19.58;66.33;100544.92;461611;114;923270;-76
2022/07/24 03:11:45;;;;;;;0.82;0.78;;;;;;;19.60;66.25;100538.30;461533;115;923178;-76
2022/07/24 03:12:49;;;;;;;1.05;0.93;;;;;;;19.58;66.31;100539.39;461469;115;922991;-77
2022/07/24 03:13:53;;;;;;;1.29;0.70;;;;;;;19.62;66.38;100536.09;461386;113;923049;-77
2022/07/24 03:14:56;;;;;;;0.89;0.79;;;;;;;19.64;66.42;100537.47;464410;113;923317;-77
2022/07/24 03:15:59;;;;;;;4.16;0.86;;;;;;;19.67;66.44;100536.94;467392;113;923421;-76
2022/07/24 03:17:02;;;;;;;1.14;1.07;;;;;;;19.69;66.44;100534.70;467430;113;923348;-77
2022/07/24 03:18:05;;;;;;;2.33;1.23;;;;;;;19.71;66.39;100529.73;467269;113;922543;-76
2022/07/24 03:19:10;;;;;;;1.34;1.21;;;;;;;19.74;66.32;100520.03;464717;111;930248;-77
2022/07/24 03:20:14;;;;;;;2.32;0.99;;;;;;;19.75;66.26;100522.53;467363;113;922944;-77
2022/07/24 03:21:17;;;;;;;1.76;0.94;;;;;;;19.77;66.18;100519.50;467435;113;922462;-77
2022/07/24 03:22:23;;;;;;;1.36;1.20;;;;;;;19.76;66.21;100526.96;465019;113;922510;-77
2022/07/24 03:23:26;;;;;;;1.11;0.72;;;;;;;19.77;66.23;100523.09;467429;113;922493;-77
2022/07/24 03:24:29;;;;;;;2.56;1.56;;;;;;;19.77;66.27;100525.86;467357;113;923019;-77
2022/07/24 03:25:32;;;;;;;2.75;1.24;;;;;;;19.78;66.39;100533.06;467439;113;922843;-78
2022/07/24 03:26:35;;;;;;;1.22;1.11;;;;;;;19.78;66.57;100533.06;467482;113;922730;-77
2022/07/24 03:27:38;;;;;;;1.48;1.05;;;;;;;19.79;66.67;100529.16;467476;113;923470;-78
2022/07/24 03:28:42;;;;;;;1.87;1.11;;;;;;;19.81;66.74;100532.49;467458;113;922774;-77
2022/07/24 03:29:45;;;;;;;2.34;0.98;;;;;;;19.84;66.83;100531.13;464057;113;922982;-77
2022/07/24 03:30:48;;;;;;;1.64;1.08;;;;;;;19.86;66.90;100529.72;460025;115;922515;-77
2022/07/24 03:31:52;;;;;;;1.91;1.14;;;;;;;19.89;66.96;100522.81;461605;115;922448;-77
2022/07/24 03:32:55;;;;;;;4.74;1.15;;;;;;;19.92;66.99;100512.01;461498;114;922898;-77
2022/07/24 03:33:58;;;;;;;1.69;0.93;;;;;;;19.95;67.12;100519.77;465257;112;923111;-77
2022/07/24 03:35:01;;;;;;;1.55;1.07;;;;;;;19.98;67.17;100516.44;470940;112;922560;-77
2022/07/24 03:36:05;;;;;;;0.94;0.89;;;;;;;20.03;67.29;100520.30;470877;112;922499;-77
2022/07/24 03:37:07;;;;;;;1.24;1.06;;;;;;;20.06;67.38;100526.13;470879;112;922735;-78
2022/07/24 03:38:10;;;;;;;1.42;1.13;;;;;;;20.10;67.48;100540.23;470858;112;922525;-78
2022/07/24 03:39:13;;;;;;;2.03;1.04;;;;;;;20.14;67.59;100536.62;470859;112;923634;-77
2022/07/24 03:40:18;;;;;;;1.07;0.91;;;;;;;20.16;67.64;100508.66;470697;112;922727;-77
2022/07/24 03:41:21;;;;;;;1.52;0.99;;;;;;;20.19;67.64;100522.77;470879;112;922471;-77
2022/07/24 03:42:26;;;;;;;2.18;0.87;;;;;;;20.21;67.68;100526.09;470726;112;922767;-77
2022/07/24 03:43:29;;;;;;;1.32;1.08;;;;;;;20.24;67.68;100531.06;470931;112;922551;-77
2022/07/24 03:44:32;;;;;;;1.21;1.09;;;;;;;20.26;67.69;100531.62;470898;112;922618;-77
2022/07/24 03:45:34;;;;;;;0.94;0.89;;;;;;;20.27;67.65;100536.05;470871;112;922860;-77
2022/07/24 03:46:38;;;;;;;2.10;1.05;;;;;;;20.28;67.65;100534.95;470875;112;922688;-77
2022/07/24 03:47:41;;;;;;;2.38;1.09;;;;;;;20.28;67.61;100534.95;470841;112;923078;-78
2022/07/24 03:48:44;;;;;;;0.94;0.89;;;;;;;20.29;67.61;100541.29;470941;112;922579;-78
2022/07/24 03:49:47;;;;;;;0.90;0.90;;;;;;;20.28;67.66;100537.72;470882;112;922475;-77
2022/07/24 03:50:50;;;;;;;1.36;1.02;;;;;;;20.27;67.63;100536.05;470817;112;922623;-77
2022/07/24 03:51:53;;;;;;;2.31;1.31;;;;;;;20.24;67.62;100533.83;470869;112;922482;-78
2022/07/24 03:52:57;;;;;;;1.47;1.22;;;;;;;20.22;67.56;100538.84;470874;112;922576;-77
2022/07/24 03:54:00;;;;;;;3.58;1.36;;;;;;;20.21;67.67;100539.11;470839;112;922935;-77
2022/07/24 03:55:04;;;;;;;2.89;1.27;;;;;;;20.18;67.74;100543.25;470859;112;923406;-77
2022/07/24 03:56:09;;;;;;;1.26;1.16;;;;;;;20.15;67.61;100542.98;470726;112;922925;-77
2022/07/24 03:57:12;;;;;;;1.64;1.31;;;;;;;20.13;67.64;100547.96;470651;112;927032;-77
2022/07/24 03:58:15;;;;;;;2.15;1.51;;;;;;;20.09;67.62;100556.00;470814;112;930187;-77
2022/07/24 03:59:18;;;;;;;1.98;1.44;;;;;;;20.07;67.61;100543.56;470833;112;922577;-77
2022/07/24 04:00:21;;;;;;;1.82;1.61;;;;;;;20.03;67.61;100550.75;470776;112;922987;-77
2022/07/24 04:01:25;;;;;;;3.58;1.98;;;;;;;19.98;67.59;100549.65;470810;112;922645;-77
2022/07/24 04:02:28;;;;;;;3.11;2.33;;;;;;;19.94;67.72;100547.72;470803;112;923044;-77
2022/07/24 04:03:31;;;;;;;3.24;1.92;;;;;;;19.91;67.87;100551.86;470799;112;923090;-77
2022/07/24 04:04:34;;;;;;;4.08;2.30;;;;;;;19.90;68.09;100552.16;470738;112;923369;-78
2022/07/24 04:05:37;;;;;;;3.20;2.31;;;;;;;19.88;68.09;100549.66;470886;112;922844;-77
2022/07/24 04:06:43;;;;;;;4.76;2.69;;;;;;;19.88;67.95;100551.59;465344;112;922490;-77
2022/07/24 04:07:46;;;;;;;3.99;1.98;;;;;;;19.85;68.08;100554.89;461528;114;923019;-77
2022/07/24 04:08:49;;;;;;;3.56;2.01;;;;;;;19.83;68.17;100546.89;461505;113;922448;-81
2022/07/24 04:09:52;;;;;;;2.41;1.99;;;;;;;19.83;68.31;100552.42;461503;115;923053;-77
2022/07/24 04:10:58;;;;;;;2.46;1.66;;;;;;;19.82;68.39;100553.53;452348;117;923019;-77
2022/07/24 04:12:01;;;;;;;3.29;1.77;;;;;;;19.82;68.47;100553.53;461343;115;923082;-77
2022/07/24 04:13:04;;;;;;;2.86;2.11;;;;;;;19.82;68.58;100555.46;461491;115;922486;-77
2022/07/24 04:14:07;;;;;;;5.27;1.94;;;;;;;19.82;68.68;100556.30;461485;113;922482;-77
2022/07/24 04:15:10;;;;;;;3.62;1.98;;;;;;;19.82;68.72;100552.70;461446;115;922584;-77
2022/07/24 04:16:15;;;;;;;2.51;1.67;;;;;;;19.82;68.76;100550.77;452157;116;922530;-77
2022/07/24 04:17:18;;;;;;;1.66;1.42;;;;;;;19.85;68.85;100560.43;461506;115;930359;-77
2022/07/24 04:18:21;;;;;;;2.37;2.02;;;;;;;19.85;68.93;100555.73;452241;116;922794;-77
2022/07/24 04:19:24;;;;;;;2.29;1.59;;;;;;;19.87;68.96;100549.92;461546;115;923042;-77
2022/07/24 04:20:28;;;;;;;3.15;1.41;;;;;;;19.88;68.93;100549.66;452226;116;922553;-77
2022/07/24 04:21:32;;;;;;;2.66;1.75;;;;;;;19.89;69.10;100550.49;461441;115;922487;-77
2022/07/24 04:22:35;;;;;;;2.25;1.98;;;;;;;19.94;69.09;100553.25;452278;117;922560;-77
2022/07/24 04:23:40;;;;;;;1.78;1.60;;;;;;;19.94;69.09;100553.25;461318;114;922886;-77
2022/07/24 04:24:44;;;;;;;1.79;1.67;;;;;;;19.96;69.21;100551.85;453119;116;922603;-76
2022/07/24 04:25:47;;;;;;;4.47;1.89;;;;;;;20.01;69.28;100547.44;444447;119;922507;-77
2022/07/24 04:26:50;;;;;;;2.17;1.58;;;;;;;20.03;69.09;100562.65;444493;119;922564;-76
2022/07/24 04:27:53;;;;;;;3.17;1.81;;;;;;;20.05;69.07;100552.14;444507;119;923095;-77
2022/07/24 04:28:56;;;;;;;2.59;1.77;;;;;;;20.06;69.17;100556.58;444440;119;922818;-76
2022/07/24 04:29:59;;;;;;;2.18;1.99;;;;;;;20.08;69.12;100556.27;442762;119;923032;-76
2022/07/24 04:31:02;;;;;;;1.64;1.36;;;;;;;20.09;69.10;100547.70;442838;119;923104;-77
2022/07/24 04:32:06;;;;;;;3.07;2.12;;;;;;;20.10;69.15;100534.69;443548;119;922605;-76
2022/07/24 04:33:10;;;;;;;4.97;2.47;;;;;;;20.12;69.15;100544.39;443426;119;930435;-76
2022/07/24 04:34:13;;;;;;;3.76;2.71;;;;;;;20.13;69.19;100546.02;438794;119;923060;-77
2022/07/24 04:35:16;;;;;;;5.40;3.29;;;;;;;20.16;69.24;100536.34;436200;121;922899;-76
2022/07/24 04:36:21;;;;;;;7.71;4.27;;;;;;;20.18;69.31;100540.48;435919;121;922625;-76
2022/07/24 04:37:24;;;;;;;4.96;3.83;;;;;;;20.22;69.21;100543.54;436218;121;922627;-77
2022/07/24 04:38:27;;;;;;;5.96;3.89;;;;;;;20.24;69.18;100547.67;422935;124;922577;-76
2022/07/24 04:39:30;;;;;;;6.76;3.56;;;;;;;20.27;69.17;100554.60;433157;119;922619;-77
2022/07/24 04:40:34;;;;;;;5.28;4.05;;;;;;;20.28;68.94;100550.73;444712;119;922586;-77
2022/07/24 04:41:37;;;;;;;4.64;3.37;;;;;;;20.29;68.84;100558.73;444780;119;923046;-77
2022/07/24 04:42:40;;;;;;;5.78;3.02;;;;;;;20.32;68.87;100557.39;444740;119;923202;-77
2022/07/24 04:43:44;;;;;;;7.32;3.49;;;;;;;20.32;68.72;100565.70;444746;119;923052;-77
2022/07/24 04:44:47;;;;;;;3.86;2.84;;;;;;;20.32;68.68;100566.53;444682;119;922948;-77
2022/07/24 04:45:50;;;;;;;7.00;3.11;;;;;;;20.34;68.67;100567.06;444711;119;922889;-77
2022/07/24 04:46:53;;;;;;;3.94;2.94;;;;;;;20.35;68.57;100565.13;444786;119;923115;-77
2022/07/24 04:47:56;;;;;;;5.64;2.91;;;;;;;20.35;68.58;100571.50;444716;119;922447;-77
2022/07/24 04:49:00;;;;;;;7.80;3.40;;;;;;;20.36;68.29;100569.56;444749;119;923062;-77
2022/07/24 04:50:05;;;;;;;4.71;3.31;;;;;;;20.36;68.17;100573.16;444656;119;922504;-77
2022/07/24 04:51:08;;;;;;;2.80;2.31;;;;;;;20.35;68.07;100568.73;444599;119;923011;-77
2022/07/24 04:52:11;;;;;;;2.63;2.07;;;;;;;20.36;67.92;100572.33;444789;119;923136;-77